sensor_id;sensor_type;location;lat;lon;timestamp;P1;durP1;ratioP1;P2;durP2;ratioP2
52272;SDS011;38227;50.942;4.016;2023-05-10T00:02:20;5.57;;;3.30;;
52272;SDS011;38227;50.942;4.016;2023-05-10T00:04:48;6.90;;;3.42;;
52272;SDS011;38227;50.942;4.016;2023-05-10T00:07:17;5.43;;;3.17;;
52272;SDS011;38227;50.942;4.016;2023-05-10T00:09:50;8.30;;;3.47;;
52272;SDS011;38227;50.942;4.016;2023-05-10T00:12:28;7.43;;;3.83;;
52272;SDS011;38227;50.942;4.016;2023-05-10T00:14:59;7.07;;;3.30;;
52272;SDS011;38227;50.942;4.016;2023-05-10T00:17:29;8.55;;;3.50;;
52272;SDS011;38227;50.942;4.016;2023-05-10T00:19:59;7.28;;;3.28;;
52272;SDS011;38227;50.942;4.016;2023-05-10T00:22:30;5.18;;;3.28;;
52272;SDS011;38227;50.942;4.016;2023-05-10T00:24:58;7.95;;;3.67;;
52272;SDS011;38227;50.942;4.016;2023-05-10T00:27:26;9.10;;;4.18;;
52272;SDS011;38227;50.942;4.016;2023-05-10T00:29:53;6.25;;;3.67;;
52272;SDS011;38227;50.942;4.016;2023-05-10T00:32:23;7.53;;;3.70;;
52272;SDS011;38227;50.942;4.016;2023-05-10T00:34:54;5.97;;;3.35;;
52272;SDS011;38227;50.942;4.016;2023-05-10T00:37:23;6.43;;;3.50;;
52272;SDS011;38227;50.942;4.016;2023-05-10T00:40:00;9.07;;;3.90;;
52272;SDS011;38227;50.942;4.016;2023-05-10T00:42:29;6.93;;;3.70;;
52272;SDS011;38227;50.942;4.016;2023-05-10T00:45:00;9.15;;;4.32;;
52272;SDS011;38227;50.942;4.016;2023-05-10T00:47:29;7.82;;;4.07;;
52272;SDS011;38227;50.942;4.016;2023-05-10T00:50:00;8.15;;;4.32;;
52272;SDS011;38227;50.942;4.016;2023-05-10T00:52:29;7.57;;;4.10;;
52272;SDS011;38227;50.942;4.016;2023-05-10T00:55:01;7.43;;;4.10;;
52272;SDS011;38227;50.942;4.016;2023-05-10T00:57:30;7.95;;;4.30;;
52272;SDS011;38227;50.942;4.016;2023-05-10T01:00:02;10.82;;;4.53;;
52272;SDS011;38227;50.942;4.016;2023-05-10T01:02:33;7.97;;;4.53;;
52272;SDS011;38227;50.942;4.016;2023-05-10T01:05:02;8.52;;;4.70;;
52272;SDS011;38227;50.942;4.016;2023-05-10T01:07:34;8.57;;;4.60;;
52272;SDS011;38227;50.942;4.016;2023-05-10T01:10:04;9.50;;;5.18;;
52272;SDS011;38227;50.942;4.016;2023-05-10T01:12:35;8.70;;;5.10;;
52272;SDS011;38227;50.942;4.016;2023-05-10T01:15:06;9.25;;;4.85;;
52272;SDS011;38227;50.942;4.016;2023-05-10T01:17:37;10.68;;;5.20;;
52272;SDS011;38227;50.942;4.016;2023-05-10T01:20:06;8.73;;;5.20;;
52272;SDS011;38227;50.942;4.016;2023-05-10T01:38:51;12.98;;;5.82;;
52272;SDS011;38227;50.942;4.016;2023-05-10T01:47:56;10.82;;;6.32;;
52272;SDS011;38227;50.942;4.016;2023-05-10T01:50:40;13.65;;;6.47;;
52272;SDS011;38227;50.942;4.016;2023-05-10T01:53:17;11.90;;;6.18;;
52272;SDS011;38227;50.942;4.016;2023-05-10T01:55:55;14.13;;;6.53;;
52272;SDS011;38227;50.942;4.016;2023-05-10T01:58:32;13.70;;;6.10;;
52272;SDS011;38227;50.942;4.016;2023-05-10T02:01:12;10.70;;;5.90;;
52272;SDS011;38227;50.942;4.016;2023-05-10T02:03:45;13.00;;;6.70;;
52272;SDS011;38227;50.942;4.016;2023-05-10T02:06:14;13.57;;;6.32;;
52272;SDS011;38227;50.942;4.016;2023-05-10T02:08:46;12.90;;;6.85;;
52272;SDS011;38227;50.942;4.016;2023-05-10T02:11:17;16.08;;;7.10;;
52272;SDS011;38227;50.942;4.016;2023-05-10T02:13:47;13.23;;;6.47;;
52272;SDS011;38227;50.942;4.016;2023-05-10T02:16:18;14.65;;;6.70;;
52272;SDS011;38227;50.942;4.016;2023-05-10T02:18:52;13.90;;;6.95;;
52272;SDS011;38227;50.942;4.016;2023-05-10T02:21:21;13.60;;;6.82;;
52272;SDS011;38227;50.942;4.016;2023-05-10T02:23:50;11.48;;;6.28;;
52272;SDS011;38227;50.942;4.016;2023-05-10T02:26:20;12.10;;;6.43;;
52272;SDS011;38227;50.942;4.016;2023-05-10T02:28:52;11.77;;;6.47;;
52272;SDS011;38227;50.942;4.016;2023-05-10T02:31:21;12.95;;;6.20;;
52272;SDS011;38227;50.942;4.016;2023-05-10T02:33:50;12.55;;;6.07;;
52272;SDS011;38227;50.942;4.016;2023-05-10T02:36:19;11.38;;;5.68;;
52272;SDS011;38227;50.942;4.016;2023-05-10T02:38:50;11.70;;;6.05;;
52272;SDS011;38227;50.942;4.016;2023-05-10T02:41:20;11.80;;;6.18;;
52272;SDS011;38227;50.942;4.016;2023-05-10T02:43:52;13.00;;;6.15;;
52272;SDS011;38227;50.942;4.016;2023-05-10T02:46:27;12.13;;;6.53;;
52272;SDS011;38227;50.942;4.016;2023-05-10T02:48:58;12.00;;;6.70;;
52272;SDS011;38227;50.942;4.016;2023-05-10T02:51:36;12.52;;;6.20;;
52272;SDS011;38227;50.942;4.016;2023-05-10T02:54:10;11.77;;;6.22;;
52272;SDS011;38227;50.942;4.016;2023-05-10T02:56:45;12.13;;;6.30;;
52272;SDS011;38227;50.942;4.016;2023-05-10T02:59:16;10.38;;;5.97;;
52272;SDS011;38227;50.942;4.016;2023-05-10T03:01:45;10.90;;;5.80;;
52272;SDS011;38227;50.942;4.016;2023-05-10T03:04:16;10.48;;;5.62;;
52272;SDS011;38227;50.942;4.016;2023-05-10T03:06:45;11.57;;;6.15;;
52272;SDS011;38227;50.942;4.016;2023-05-10T03:09:13;11.10;;;5.53;;
52272;SDS011;38227;50.942;4.016;2023-05-10T03:14:49;9.90;;;5.12;;
52272;SDS011;38227;50.942;4.016;2023-05-10T03:20:25;11.82;;;5.60;;
52272;SDS011;38227;50.942;4.016;2023-05-10T03:23:00;12.00;;;6.00;;
52272;SDS011;38227;50.942;4.016;2023-05-10T03:25:35;11.27;;;6.25;;
52272;SDS011;38227;50.942;4.016;2023-05-10T03:28:06;11.02;;;5.47;;
52272;SDS011;38227;50.942;4.016;2023-05-10T03:30:37;11.60;;;6.03;;
52272;SDS011;38227;50.942;4.016;2023-05-10T03:33:06;14.27;;;6.18;;
52272;SDS011;38227;50.942;4.016;2023-05-10T03:35:36;11.93;;;6.03;;
52272;SDS011;38227;50.942;4.016;2023-05-10T03:38:06;12.70;;;6.28;;
52272;SDS011;38227;50.942;4.016;2023-05-10T03:40:34;13.65;;;6.20;;
52272;SDS011;38227;50.942;4.016;2023-05-10T03:43:03;11.65;;;5.82;;
52272;SDS011;38227;50.942;4.016;2023-05-10T03:45:33;12.30;;;6.12;;
52272;SDS011;38227;50.942;4.016;2023-05-10T03:48:19;11.45;;;6.50;;
52272;SDS011;38227;50.942;4.016;2023-05-10T03:50:55;14.25;;;7.47;;
52272;SDS011;38227;50.942;4.016;2023-05-10T03:53:32;12.60;;;6.45;;
52272;SDS011;38227;50.942;4.016;2023-05-10T03:56:03;13.57;;;6.70;;
52272;SDS011;38227;50.942;4.016;2023-05-10T03:58:35;12.23;;;6.35;;
52272;SDS011;38227;50.942;4.016;2023-05-10T04:01:14;12.02;;;6.37;;
52272;SDS011;38227;50.942;4.016;2023-05-10T04:03:53;12.95;;;6.93;;
52272;SDS011;38227;50.942;4.016;2023-05-10T04:06:23;13.68;;;7.12;;
52272;SDS011;38227;50.942;4.016;2023-05-10T04:09:02;13.98;;;7.20;;
52272;SDS011;38227;50.942;4.016;2023-05-10T04:11:41;13.68;;;6.82;;
52272;SDS011;38227;50.942;4.016;2023-05-10T04:14:21;15.15;;;7.60;;
52272;SDS011;38227;50.942;4.016;2023-05-10T04:16:55;13.18;;;7.22;;
52272;SDS011;38227;50.942;4.016;2023-05-10T04:19:30;13.90;;;6.75;;
52272;SDS011;38227;50.942;4.016;2023-05-10T04:22:01;14.45;;;7.30;;
52272;SDS011;38227;50.942;4.016;2023-05-10T04:24:43;11.95;;;6.68;;
52272;SDS011;38227;50.942;4.016;2023-05-10T04:27:23;11.88;;;6.60;;
52272;SDS011;38227;50.942;4.016;2023-05-10T04:29:53;15.48;;;7.50;;
52272;SDS011;38227;50.942;4.016;2023-05-10T04:32:23;13.10;;;7.37;;
52272;SDS011;38227;50.942;4.016;2023-05-10T04:34:52;15.38;;;6.82;;
52272;SDS011;38227;50.942;4.016;2023-05-10T04:37:23;14.23;;;6.70;;
52272;SDS011;38227;50.942;4.016;2023-05-10T04:39:52;13.20;;;7.15;;
52272;SDS011;38227;50.942;4.016;2023-05-10T04:42:24;15.20;;;7.70;;
52272;SDS011;38227;50.942;4.016;2023-05-10T04:44:54;11.20;;;6.18;;
52272;SDS011;38227;50.942;4.016;2023-05-10T04:47:32;13.32;;;6.95;;
52272;SDS011;38227;50.942;4.016;2023-05-10T04:50:01;16.42;;;6.95;;
52272;SDS011;38227;50.942;4.016;2023-05-10T04:52:32;13.90;;;6.70;;
52272;SDS011;38227;50.942;4.016;2023-05-10T04:55:04;13.18;;;7.20;;
52272;SDS011;38227;50.942;4.016;2023-05-10T04:57:35;14.23;;;7.30;;
52272;SDS011;38227;50.942;4.016;2023-05-10T05:00:04;14.70;;;7.30;;
52272;SDS011;38227;50.942;4.016;2023-05-10T05:02:35;14.23;;;7.03;;
52272;SDS011;38227;50.942;4.016;2023-05-10T05:05:04;13.25;;;6.87;;
52272;SDS011;38227;50.942;4.016;2023-05-10T05:07:33;13.98;;;7.25;;
52272;SDS011;38227;50.942;4.016;2023-05-10T05:10:01;14.18;;;6.68;;
52272;SDS011;38227;50.942;4.016;2023-05-10T05:12:29;15.50;;;7.00;;
52272;SDS011;38227;50.942;4.016;2023-05-10T05:15:01;14.05;;;6.75;;
52272;SDS011;38227;50.942;4.016;2023-05-10T05:17:32;12.70;;;6.72;;
52272;SDS011;38227;50.942;4.016;2023-05-10T05:20:00;16.48;;;6.93;;
52272;SDS011;38227;50.942;4.016;2023-05-10T05:22:29;12.15;;;6.70;;
52272;SDS011;38227;50.942;4.016;2023-05-10T05:25:00;17.17;;;7.65;;
52272;SDS011;38227;50.942;4.016;2023-05-10T05:27:28;13.57;;;7.55;;
52272;SDS011;38227;50.942;4.016;2023-05-10T05:29:59;15.75;;;8.18;;
52272;SDS011;38227;50.942;4.016;2023-05-10T05:32:37;17.52;;;8.40;;
52272;SDS011;38227;50.942;4.016;2023-05-10T05:35:07;16.50;;;8.63;;
52272;SDS011;38227;50.942;4.016;2023-05-10T05:37:38;17.77;;;8.77;;
52272;SDS011;38227;50.942;4.016;2023-05-10T05:40:06;16.00;;;7.82;;
52272;SDS011;38227;50.942;4.016;2023-05-10T05:42:37;15.88;;;8.43;;
52272;SDS011;38227;50.942;4.016;2023-05-10T05:45:14;18.87;;;8.50;;
52272;SDS011;38227;50.942;4.016;2023-05-10T05:47:43;14.68;;;7.65;;
52272;SDS011;38227;50.942;4.016;2023-05-10T05:50:15;16.48;;;8.00;;
52272;SDS011;38227;50.942;4.016;2023-05-10T05:52:44;15.15;;;7.97;;
52272;SDS011;38227;50.942;4.016;2023-05-10T05:55:13;19.23;;;9.07;;
52272;SDS011;38227;50.942;4.016;2023-05-10T05:57:44;18.37;;;8.18;;
52272;SDS011;38227;50.942;4.016;2023-05-10T06:00:14;18.35;;;9.38;;
52272;SDS011;38227;50.942;4.016;2023-05-10T06:02:43;14.57;;;7.87;;
52272;SDS011;38227;50.942;4.016;2023-05-10T06:05:11;23.70;;;9.25;;
52272;SDS011;38227;50.942;4.016;2023-05-10T06:07:40;16.60;;;8.50;;
52272;SDS011;38227;50.942;4.016;2023-05-10T06:10:11;19.00;;;8.90;;
52272;SDS011;38227;50.942;4.016;2023-05-10T06:12:41;14.68;;;8.38;;
52272;SDS011;38227;50.942;4.016;2023-05-10T06:15:13;16.80;;;8.43;;
52272;SDS011;38227;50.942;4.016;2023-05-10T06:17:46;17.45;;;7.95;;
52272;SDS011;38227;50.942;4.016;2023-05-10T06:20:17;16.17;;;8.35;;
52272;SDS011;38227;50.942;4.016;2023-05-10T06:22:46;18.65;;;8.65;;
52272;SDS011;38227;50.942;4.016;2023-05-10T06:25:23;18.67;;;8.63;;
52272;SDS011;38227;50.942;4.016;2023-05-10T06:27:51;21.95;;;9.18;;
52272;SDS011;38227;50.942;4.016;2023-05-10T06:30:24;18.05;;;9.50;;
52272;SDS011;38227;50.942;4.016;2023-05-10T06:32:56;18.92;;;8.57;;
52272;SDS011;38227;50.942;4.016;2023-05-10T06:35:25;19.58;;;8.90;;
52272;SDS011;38227;50.942;4.016;2023-05-10T06:37:54;20.15;;;9.35;;
52272;SDS011;38227;50.942;4.016;2023-05-10T06:40:24;16.65;;;8.20;;
52272;SDS011;38227;50.942;4.016;2023-05-10T06:42:55;20.48;;;9.25;;
52272;SDS011;38227;50.942;4.016;2023-05-10T06:45:24;19.20;;;8.70;;
52272;SDS011;38227;50.942;4.016;2023-05-10T06:48:02;20.35;;;8.75;;
52272;SDS011;38227;50.942;4.016;2023-05-10T06:50:30;17.85;;;7.70;;
52272;SDS011;38227;50.942;4.016;2023-05-10T06:52:59;16.02;;;7.68;;
52272;SDS011;38227;50.942;4.016;2023-05-10T06:55:27;19.17;;;7.57;;
52272;SDS011;38227;50.942;4.016;2023-05-10T06:57:56;18.67;;;7.55;;
52272;SDS011;38227;50.942;4.016;2023-05-10T07:00:25;15.20;;;6.75;;
52272;SDS011;38227;50.942;4.016;2023-05-10T07:02:54;19.08;;;7.90;;
52272;SDS011;38227;50.942;4.016;2023-05-10T07:05:22;15.93;;;7.80;;
52272;SDS011;38227;50.942;4.016;2023-05-10T07:07:52;17.95;;;8.02;;
52272;SDS011;38227;50.942;4.016;2023-05-10T07:10:26;14.57;;;7.40;;
52272;SDS011;38227;50.942;4.016;2023-05-10T07:12:55;17.95;;;7.35;;
52272;SDS011;38227;50.942;4.016;2023-05-10T07:15:35;16.98;;;8.23;;
52272;SDS011;38227;50.942;4.016;2023-05-10T07:18:12;17.98;;;8.10;;
52272;SDS011;38227;50.942;4.016;2023-05-10T07:20:44;19.10;;;7.85;;
52272;SDS011;38227;50.942;4.016;2023-05-10T07:23:21;16.25;;;7.65;;
52272;SDS011;38227;50.942;4.016;2023-05-10T07:25:50;16.25;;;7.85;;
52272;SDS011;38227;50.942;4.016;2023-05-10T07:28:19;18.85;;;8.02;;
52272;SDS011;38227;50.942;4.016;2023-05-10T07:30:52;14.73;;;7.78;;
52272;SDS011;38227;50.942;4.016;2023-05-10T07:33:23;15.55;;;6.93;;
52272;SDS011;38227;50.942;4.016;2023-05-10T07:35:51;18.12;;;8.45;;
52272;SDS011;38227;50.942;4.016;2023-05-10T07:38:20;14.43;;;7.65;;
52272;SDS011;38227;50.942;4.016;2023-05-10T07:40:48;19.17;;;8.27;;
52272;SDS011;38227;50.942;4.016;2023-05-10T07:43:16;16.83;;;8.23;;
52272;SDS011;38227;50.942;4.016;2023-05-10T07:45:45;17.42;;;6.72;;
52272;SDS011;38227;50.942;4.016;2023-05-10T07:48:16;16.40;;;7.87;;
52272;SDS011;38227;50.942;4.016;2023-05-10T07:50:45;15.45;;;7.45;;
52272;SDS011;38227;50.942;4.016;2023-05-10T07:53:13;12.88;;;6.50;;
52272;SDS011;38227;50.942;4.016;2023-05-10T07:55:41;17.60;;;7.28;;
52272;SDS011;38227;50.942;4.016;2023-05-10T07:58:09;16.67;;;7.15;;
52272;SDS011;38227;50.942;4.016;2023-05-10T08:00:37;15.52;;;7.40;;
52272;SDS011;38227;50.942;4.016;2023-05-10T08:03:06;16.15;;;6.62;;
52272;SDS011;38227;50.942;4.016;2023-05-10T08:05:35;13.05;;;6.28;;
52272;SDS011;38227;50.942;4.016;2023-05-10T08:08:11;15.57;;;7.40;;
52272;SDS011;38227;50.942;4.016;2023-05-10T08:10:41;22.70;;;11.20;;
52272;SDS011;38227;50.942;4.016;2023-05-10T08:13:12;11.45;;;6.00;;
52272;SDS011;38227;50.942;4.016;2023-05-10T08:15:42;11.88;;;5.90;;
52272;SDS011;38227;50.942;4.016;2023-05-10T08:18:13;9.63;;;4.85;;
52272;SDS011;38227;50.942;4.016;2023-05-10T08:20:51;15.85;;;6.45;;
52272;SDS011;38227;50.942;4.016;2023-05-10T08:23:31;10.48;;;5.22;;
52272;SDS011;38227;50.942;4.016;2023-05-10T08:26:00;10.85;;;5.15;;
52272;SDS011;38227;50.942;4.016;2023-05-10T08:28:31;10.23;;;4.87;;
52272;SDS011;38227;50.942;4.016;2023-05-10T08:30:59;10.82;;;5.80;;
52272;SDS011;38227;50.942;4.016;2023-05-10T08:33:27;11.82;;;5.75;;
52272;SDS011;38227;50.942;4.016;2023-05-10T08:35:55;12.45;;;5.00;;
52272;SDS011;38227;50.942;4.016;2023-05-10T08:38:25;10.43;;;5.65;;
52272;SDS011;38227;50.942;4.016;2023-05-10T08:40:54;9.55;;;5.28;;
52272;SDS011;38227;50.942;4.016;2023-05-10T08:43:27;10.98;;;4.93;;
52272;SDS011;38227;50.942;4.016;2023-05-10T08:45:56;13.55;;;5.37;;
52272;SDS011;38227;50.942;4.016;2023-05-10T08:48:28;12.20;;;4.95;;
52272;SDS011;38227;50.942;4.016;2023-05-10T08:50:57;14.20;;;5.47;;
52272;SDS011;38227;50.942;4.016;2023-05-10T08:53:27;10.73;;;5.10;;
52272;SDS011;38227;50.942;4.016;2023-05-10T08:55:56;14.23;;;5.87;;
52272;SDS011;38227;50.942;4.016;2023-05-10T08:58:24;11.30;;;5.03;;
52272;SDS011;38227;50.942;4.016;2023-05-10T09:00:53;26.98;;;5.57;;
52272;SDS011;38227;50.942;4.016;2023-05-10T09:03:23;13.60;;;5.28;;
52272;SDS011;38227;50.942;4.016;2023-05-10T09:05:53;10.55;;;5.05;;
52272;SDS011;38227;50.942;4.016;2023-05-10T09:08:22;8.80;;;4.93;;
52272;SDS011;38227;50.942;4.016;2023-05-10T09:10:52;11.95;;;5.10;;
52272;SDS011;38227;50.942;4.016;2023-05-10T09:13:23;10.02;;;4.80;;
52272;SDS011;38227;50.942;4.016;2023-05-10T09:15:54;7.18;;;4.00;;
52272;SDS011;38227;50.942;4.016;2023-05-10T09:18:27;9.70;;;5.05;;
52272;SDS011;38227;50.942;4.016;2023-05-10T09:20:57;8.68;;;4.70;;
52272;SDS011;38227;50.942;4.016;2023-05-10T09:23:25;8.80;;;4.30;;
52272;SDS011;38227;50.942;4.016;2023-05-10T09:26:04;6.75;;;4.18;;
52272;SDS011;38227;50.942;4.016;2023-05-10T09:28:33;7.20;;;4.10;;
52272;SDS011;38227;50.942;4.016;2023-05-10T09:31:17;10.63;;;4.22;;
52272;SDS011;38227;50.942;4.016;2023-05-10T09:33:50;9.60;;;4.90;;
52272;SDS011;38227;50.942;4.016;2023-05-10T09:36:18;9.82;;;4.97;;
52272;SDS011;38227;50.942;4.016;2023-05-10T09:41:35;10.60;;;4.57;;
52272;SDS011;38227;50.942;4.016;2023-05-10T09:44:03;9.65;;;5.07;;
52272;SDS011;38227;50.942;4.016;2023-05-10T09:46:34;8.98;;;4.87;;
52272;SDS011;38227;50.942;4.016;2023-05-10T09:49:02;9.65;;;4.65;;
52272;SDS011;38227;50.942;4.016;2023-05-10T09:51:34;7.95;;;4.82;;
52272;SDS011;38227;50.942;4.016;2023-05-10T09:54:09;13.23;;;4.93;;
52272;SDS011;38227;50.942;4.016;2023-05-10T09:56:41;10.90;;;5.22;;
52272;SDS011;38227;50.942;4.016;2023-05-10T09:59:11;9.25;;;5.00;;
52272;SDS011;38227;50.942;4.016;2023-05-10T10:01:39;8.35;;;5.10;;
52272;SDS011;38227;50.942;4.016;2023-05-10T10:04:17;10.55;;;5.22;;
52272;SDS011;38227;50.942;4.016;2023-05-10T10:06:46;11.40;;;5.82;;
52272;SDS011;38227;50.942;4.016;2023-05-10T10:09:26;8.02;;;5.07;;
52272;SDS011;38227;50.942;4.016;2023-05-10T10:11:54;9.88;;;5.00;;
52272;SDS011;38227;50.942;4.016;2023-05-10T10:14:22;8.90;;;4.93;;
52272;SDS011;38227;50.942;4.016;2023-05-10T10:16:50;9.15;;;4.65;;
52272;SDS011;38227;50.942;4.016;2023-05-10T10:19:19;8.13;;;4.72;;
52272;SDS011;38227;50.942;4.016;2023-05-10T10:21:48;9.15;;;5.20;;
52272;SDS011;38227;50.942;4.016;2023-05-10T10:24:16;10.27;;;5.47;;
52272;SDS011;38227;50.942;4.016;2023-05-10T10:26:44;8.48;;;5.28;;
52272;SDS011;38227;50.942;4.016;2023-05-10T10:38:07;10.02;;;5.85;;
52272;SDS011;38227;50.942;4.016;2023-05-10T10:40:35;10.90;;;6.30;;
52272;SDS011;38227;50.942;4.016;2023-05-10T10:49:10;12.25;;;6.28;;
52272;SDS011;38227;50.942;4.016;2023-05-10T10:52:12;10.30;;;5.30;;
52272;SDS011;38227;50.942;4.016;2023-05-10T10:55:09;8.65;;;4.82;;
52272;SDS011;38227;50.942;4.016;2023-05-10T10:57:51;9.18;;;5.12;;
52272;SDS011;38227;50.942;4.016;2023-05-10T11:00:31;9.98;;;5.87;;
52272;SDS011;38227;50.942;4.016;2023-05-10T11:03:12;10.60;;;6.00;;
52272;SDS011;38227;50.942;4.016;2023-05-10T11:06:00;8.10;;;5.25;;
52272;SDS011;38227;50.942;4.016;2023-05-10T11:08:59;10.38;;;5.18;;
52272;SDS011;38227;50.942;4.016;2023-05-10T11:11:36;8.88;;;5.30;;
52272;SDS011;38227;50.942;4.016;2023-05-10T11:14:23;9.25;;;5.15;;
52272;SDS011;38227;50.942;4.016;2023-05-10T11:17:29;9.75;;;5.35;;
52272;SDS011;38227;50.942;4.016;2023-05-10T11:20:07;10.88;;;5.20;;
52272;SDS011;38227;50.942;4.016;2023-05-10T11:22:49;8.68;;;5.10;;
52272;SDS011;38227;50.942;4.016;2023-05-10T11:25:19;8.75;;;5.18;;
52272;SDS011;38227;50.942;4.016;2023-05-10T11:27:48;8.02;;;4.62;;
52272;SDS011;38227;50.942;4.016;2023-05-10T11:30:16;7.70;;;4.47;;
52272;SDS011;38227;50.942;4.016;2023-05-10T11:32:44;8.70;;;5.05;;
52272;SDS011;38227;50.942;4.016;2023-05-10T11:35:13;9.80;;;5.37;;
52272;SDS011;38227;50.942;4.016;2023-05-10T11:37:42;10.07;;;5.60;;
52272;SDS011;38227;50.942;4.016;2023-05-10T11:40:21;8.77;;;4.25;;
52272;SDS011;38227;50.942;4.016;2023-05-10T11:42:55;9.23;;;5.00;;
52272;SDS011;38227;50.942;4.016;2023-05-10T11:45:23;9.02;;;5.10;;
52272;SDS011;38227;50.942;4.016;2023-05-10T11:47:52;8.73;;;4.80;;
52272;SDS011;38227;50.942;4.016;2023-05-10T11:50:24;8.15;;;4.50;;
52272;SDS011;38227;50.942;4.016;2023-05-10T11:52:55;8.48;;;4.68;;
52272;SDS011;38227;50.942;4.016;2023-05-10T11:55:24;8.88;;;4.82;;
52272;SDS011;38227;50.942;4.016;2023-05-10T11:57:55;9.13;;;4.50;;
52272;SDS011;38227;50.942;4.016;2023-05-10T12:00:29;10.52;;;5.03;;
52272;SDS011;38227;50.942;4.016;2023-05-10T12:03:02;7.72;;;4.60;;
52272;SDS011;38227;50.942;4.016;2023-05-10T12:05:33;7.57;;;4.80;;
52272;SDS011;38227;50.942;4.016;2023-05-10T12:08:14;9.65;;;5.15;;
52272;SDS011;38227;50.942;4.016;2023-05-10T12:10:47;9.23;;;5.22;;
52272;SDS011;38227;50.942;4.016;2023-05-10T12:13:37;8.15;;;4.85;;
52272;SDS011;38227;50.942;4.016;2023-05-10T12:16:16;7.00;;;3.85;;
52272;SDS011;38227;50.942;4.016;2023-05-10T12:18:50;11.23;;;5.40;;
52272;SDS011;38227;50.942;4.016;2023-05-10T12:21:19;9.77;;;5.55;;
52272;SDS011;38227;50.942;4.016;2023-05-10T12:23:51;10.60;;;4.93;;
52272;SDS011;38227;50.942;4.016;2023-05-10T12:26:23;9.45;;;5.35;;
52272;SDS011;38227;50.942;4.016;2023-05-10T12:28:55;10.70;;;5.37;;
52272;SDS011;38227;50.942;4.016;2023-05-10T12:31:55;8.80;;;5.12;;
52272;SDS011;38227;50.942;4.016;2023-05-10T12:34:31;8.27;;;4.72;;
52272;SDS011;38227;50.942;4.016;2023-05-10T12:37:04;11.40;;;5.03;;
52272;SDS011;38227;50.942;4.016;2023-05-10T12:39:41;8.48;;;4.80;;
52272;SDS011;38227;50.942;4.016;2023-05-10T12:42:11;8.57;;;5.43;;
52272;SDS011;38227;50.942;4.016;2023-05-10T12:44:41;9.40;;;5.22;;
52272;SDS011;38227;50.942;4.016;2023-05-10T12:47:22;10.48;;;5.45;;
52272;SDS011;38227;50.942;4.016;2023-05-10T12:49:52;8.50;;;4.70;;
52272;SDS011;38227;50.942;4.016;2023-05-10T12:52:28;9.07;;;5.32;;
52272;SDS011;38227;50.942;4.016;2023-05-10T12:54:59;9.40;;;5.50;;
52272;SDS011;38227;50.942;4.016;2023-05-10T12:57:26;9.68;;;5.82;;
52272;SDS011;38227;50.942;4.016;2023-05-10T12:59:56;13.95;;;6.90;;
52272;SDS011;38227;50.942;4.016;2023-05-10T13:02:28;11.85;;;5.72;;
52272;SDS011;38227;50.942;4.016;2023-05-10T13:05:06;10.00;;;6.28;;
52272;SDS011;38227;50.942;4.016;2023-05-10T13:07:36;12.23;;;6.40;;
52272;SDS011;38227;50.942;4.016;2023-05-10T13:10:08;11.90;;;6.05;;
52272;SDS011;38227;50.942;4.016;2023-05-10T13:12:42;13.95;;;6.82;;
52272;SDS011;38227;50.942;4.016;2023-05-10T13:15:13;12.25;;;6.62;;
52272;SDS011;38227;50.942;4.016;2023-05-10T13:17:41;10.95;;;6.20;;
52272;SDS011;38227;50.942;4.016;2023-05-10T13:20:10;12.55;;;6.45;;
52272;SDS011;38227;50.942;4.016;2023-05-10T13:22:43;11.05;;;6.12;;
52272;SDS011;38227;50.942;4.016;2023-05-10T13:25:12;13.05;;;7.43;;
52272;SDS011;38227;50.942;4.016;2023-05-10T13:27:42;11.60;;;6.57;;
52272;SDS011;38227;50.942;4.016;2023-05-10T13:30:12;12.30;;;6.97;;
52272;SDS011;38227;50.942;4.016;2023-05-10T13:32:42;11.10;;;6.53;;
52272;SDS011;38227;50.942;4.016;2023-05-10T13:35:13;9.88;;;5.87;;
52272;SDS011;38227;50.942;4.016;2023-05-10T13:37:42;11.88;;;6.75;;
52272;SDS011;38227;50.942;4.016;2023-05-10T13:40:13;9.93;;;6.20;;
52272;SDS011;38227;50.942;4.016;2023-05-10T13:42:43;10.90;;;6.68;;
52272;SDS011;38227;50.942;4.016;2023-05-10T13:45:14;11.60;;;6.57;;
52272;SDS011;38227;50.942;4.016;2023-05-10T13:47:42;9.65;;;6.28;;
52272;SDS011;38227;50.942;4.016;2023-05-10T13:50:12;11.63;;;6.50;;
52272;SDS011;38227;50.942;4.016;2023-05-10T13:52:43;9.57;;;6.00;;
52272;SDS011;38227;50.942;4.016;2023-05-10T13:55:12;9.18;;;5.75;;
52272;SDS011;38227;50.942;4.016;2023-05-10T13:57:43;10.63;;;6.10;;
52272;SDS011;38227;50.942;4.016;2023-05-10T14:00:11;12.90;;;6.43;;
52272;SDS011;38227;50.942;4.016;2023-05-10T14:02:41;11.50;;;6.55;;
52272;SDS011;38227;50.942;4.016;2023-05-10T14:05:11;12.07;;;6.40;;
52272;SDS011;38227;50.942;4.016;2023-05-10T14:07:48;11.90;;;7.30;;
52272;SDS011;38227;50.942;4.016;2023-05-10T14:10:16;12.00;;;7.05;;
52272;SDS011;38227;50.942;4.016;2023-05-10T14:12:45;13.57;;;6.90;;
52272;SDS011;38227;50.942;4.016;2023-05-10T14:15:15;12.25;;;6.50;;
52272;SDS011;38227;50.942;4.016;2023-05-10T14:17:45;11.48;;;6.40;;
52272;SDS011;38227;50.942;4.016;2023-05-10T14:20:15;9.77;;;6.05;;
52272;SDS011;38227;50.942;4.016;2023-05-10T14:22:46;11.90;;;6.20;;
52272;SDS011;38227;50.942;4.016;2023-05-10T14:25:18;10.73;;;6.05;;
52272;SDS011;38227;50.942;4.016;2023-05-10T14:27:47;7.22;;;4.85;;
52272;SDS011;38227;50.942;4.016;2023-05-10T14:30:20;8.63;;;4.07;;
52272;SDS011;38227;50.942;4.016;2023-05-10T14:33:01;5.68;;;3.50;;
52272;SDS011;38227;50.942;4.016;2023-05-10T14:35:29;7.22;;;4.18;;
52272;SDS011;38227;50.942;4.016;2023-05-10T14:38:01;6.30;;;3.42;;
52272;SDS011;38227;50.942;4.016;2023-05-10T14:40:30;7.18;;;3.83;;
52272;SDS011;38227;50.942;4.016;2023-05-10T14:43:03;5.07;;;3.25;;
52272;SDS011;38227;50.942;4.016;2023-05-10T14:45:39;6.53;;;3.20;;
52272;SDS011;38227;50.942;4.016;2023-05-10T14:48:08;5.70;;;3.05;;
52272;SDS011;38227;50.942;4.016;2023-05-10T14:50:41;5.60;;;3.03;;
52272;SDS011;38227;50.942;4.016;2023-05-10T14:53:12;4.40;;;2.78;;
52272;SDS011;38227;50.942;4.016;2023-05-10T14:55:41;4.45;;;2.95;;
52272;SDS011;38227;50.942;4.016;2023-05-10T14:58:12;5.68;;;3.03;;
52272;SDS011;38227;50.942;4.016;2023-05-10T15:00:39;4.32;;;2.70;;
52272;SDS011;38227;50.942;4.016;2023-05-10T15:03:11;5.90;;;3.25;;
52272;SDS011;38227;50.942;4.016;2023-05-10T15:05:41;4.20;;;2.50;;
52272;SDS011;38227;50.942;4.016;2023-05-10T15:08:18;7.32;;;3.10;;
52272;SDS011;38227;50.942;4.016;2023-05-10T15:10:47;4.40;;;2.83;;
52272;SDS011;38227;50.942;4.016;2023-05-10T15:13:20;6.30;;;3.12;;
52272;SDS011;38227;50.942;4.016;2023-05-10T15:15:50;5.87;;;2.58;;
52272;SDS011;38227;50.942;4.016;2023-05-10T15:18:27;5.75;;;2.85;;
52272;SDS011;38227;50.942;4.016;2023-05-10T15:20:56;4.03;;;2.53;;
52272;SDS011;38227;50.942;4.016;2023-05-10T15:23:26;6.07;;;2.78;;
52272;SDS011;38227;50.942;4.016;2023-05-10T15:25:57;6.80;;;2.72;;
52272;SDS011;38227;50.942;4.016;2023-05-10T15:28:26;4.35;;;2.95;;
52272;SDS011;38227;50.942;4.016;2023-05-10T15:30:58;7.45;;;2.95;;
52272;SDS011;38227;50.942;4.016;2023-05-10T15:33:35;5.32;;;3.20;;
52272;SDS011;38227;50.942;4.016;2023-05-10T15:36:03;5.93;;;2.85;;
52272;SDS011;38227;50.942;4.016;2023-05-10T15:38:32;4.90;;;3.25;;
52272;SDS011;38227;50.942;4.016;2023-05-10T15:41:02;6.72;;;3.25;;
52272;SDS011;38227;50.942;4.016;2023-05-10T15:43:33;5.15;;;3.10;;
52272;SDS011;38227;50.942;4.016;2023-05-10T15:46:03;6.60;;;3.30;;
52272;SDS011;38227;50.942;4.016;2023-05-10T15:48:33;5.57;;;2.92;;
52272;SDS011;38227;50.942;4.016;2023-05-10T15:51:02;4.78;;;3.03;;
52272;SDS011;38227;50.942;4.016;2023-05-10T15:53:33;5.15;;;3.42;;